TLPL/UVF METAR and TAF weather

Enter ICAO airport designator
Station Type Date Time Source
TLPL METAR 2019/10/20 19:00 UTC NOAA

TLPL 201900Z 11010KT 9999 FEW029 31/25 Q1012 NOSIG


Station Type Date Time Source
TLPL Decoded METAR 2019/10/20 19:00 UTC NOAA

Hewanorra International Airport, Saint Lucia (TLPL) 13-45N 060-57W 10M
Oct 20, 2019 - 03:00 PM EDT / 2019.10.20 1900 UTC
Wind: from the ESE (110 degrees) at 12 MPH (10 KT):0
Visibility: greater than 7 mile(s):0
Sky conditions: mostly clear
Temperature: 87 F (31 C)
Heat index: 97.5 F (36.4 C):1
Dew Point: 77 F (25 C)
Relative Humidity: 70%
Pressure (altimeter): 29.88 in. Hg (1012 hPa)
ob: TLPL 201900Z 11010KT 9999 FEW029 31/25 Q1012 NOSIG
cycle: 19

Station Type Date Time Source
TLPL TAF 2019/10/20 18:05 UTC NOAA

TAF TLPL 201700Z 2018/2118 10013KT 9999 SCT026 PROB30
TEMPO 2100/2112 SHRA

Example: see airport list